Airfield :
LOGIN :

Register | Disclaimer

   EN    FR    IT 

 










Legend :    VFR   Marginal VFR   IFR   Intensive IFR   Very Intensive IFR
Visi :
Ceiling :
>= 8 km
>= 3000ft
5 to 8 km
1000 to 3000 ft
1500m to 5 km
500 to 1000 ft
800 to 1500m
200 to 500 ft
< 800m
< 200 ft
Symbols :   Thunderstorms  Fog  Heavy snow  Heavy precipitations  Wind > 20 kt
SIGMETs :     Misc.  Thunderstorms  Icing  Turbulence  Mountain Waves  Volcanic Ashes







- Airport Elevation : 1273 ft
- IATA code : LJU


LJLJ - Ljubljana

CURRENT METAR :
  • 142030Z 33004KT 290V010 9999 8000 BKN025 04/04 Q1002 NOSIG

EXPIRED METARs :
  • 142000Z 28005KT 9999 -RA BKN025 04/04 Q1003 NOSIG
  • 141930Z VRB02KT 9999 -RA BKN030 BKN080 04/04 Q1003 NOSIG
  • 141900Z VRB01KT 9999 -RA BKN038 04/03 Q1004 NOSIG
  • 141830Z VRB01KT 9999 -RA BKN038 04/04 Q1004 NOSIG
  • 141800Z 18001KT 9999 SCT030 BKN075 04/04 Q1004 NOSIG

TAF TAF LJLJ
Valid from the 14 at 21:00 until the 15 at 21:00 UTC


142000Z 1421/1521 27003KT 9999 BKN030 OVC050
TEMPO 1421/1424 -RA
BECMG 1500/1503 7000 -RA
TEMPO 1500/1512 BKN020
BECMG 1512/1515 12005KT 9999 NSW
BECMG 1518/1521 7000 RA SCT007 BKN020 OVC035
No reported NOTAMs for that airfield.



MET'MAP, your aeronautical weather chart ! - Copyright ORBIFLY December 2007 - Disclaimer

ORBIFLY MET'MAP TEAM :

Programming & Development : Alexandra Zaïnal
Concept & Development : Baudouin d'Aumeries
Co-Development & Prog : Marc-Olivier Méhu
Technical & hardware support : Manuel Goepfert

Contact : metmap@orbifly.com




SOURCES & CREDITS :

   NOAA